LiveATC.Net - Listen to live air traffic control over the Internet!


ICAO: YSCB  IATA: CBR   Airport: Canberra International Airport
City: Canberra   State/Province: Australian Capital Territory
Country: Australia   Continent: Oceania
YSCB METAR Weather: YSCB 312130Z 18004KT 9999 FEW001 08/07 Q1019
YSCB Flight Activity (FlightAware)
YSCB Twr/App
Feed Status: DOWN
Last heard on: 2016-08-26 09:31:03 (5 days 13 hours 59 minutes ago)
YSCB Twr/App Audio Archives
FacilityFrequency
Canberra Approach124.500
Canberra Tower118.700


NOTICE

Unauthorized use prohibited. See LiveATC.net Terms of Service


Find LiveATC Audio Streams


Airport/ARTCC Code

Frequency
(e.g., 124.400, 128.75)
Site-wide search

Browse LiveATC Feeds
LiveATC Coverage Map
Top 50 LiveATC Feeds
Bad Weather Areas

LiveATC FAQ
Offer a LiveATC Feed
Contact LiveATC.net
Press Inquiries

LiveATC on iPhone
LiveATC on Android

Windows Phone
Windows 8/10

LiveATC Mobile
(Mobile browser)

ATC Audio Archives
Interesting Recordings

LiveATC Forums


Home Page
About LiveATC.net
Make a Donation
LiveATC Store

Terms of Use
Privacy Policy

Canadian Air Freqs

AIRMETs/SIGMETs

FAA Airport Status
Nat'l Airspace Status
Arrival Demand Charts


Server Software By:
Icecast.org
Liquidsoap